sensor_id;sensor_type;location;lat;lon;timestamp;pressure;altitude;pressure_sealevel;temperature;humidity
71976;BME280;68326;52.124;5.424;2023-06-26T00:01:01;101222.94;;;20.32;88.20
71976;BME280;68326;52.124;5.424;2023-06-26T00:03:28;101223.88;;;20.31;89.05
71976;BME280;68326;52.124;5.424;2023-06-26T00:05:55;101217.78;;;20.30;88.86
71976;BME280;68326;52.124;5.424;2023-06-26T00:08:27;101220.66;;;20.27;88.27
71976;BME280;68326;52.124;5.424;2023-06-26T00:10:54;101209.53;;;20.24;89.43
71976;BME280;68326;52.124;5.424;2023-06-26T00:13:21;101221.22;;;20.21;88.15
71976;BME280;68326;52.124;5.424;2023-06-26T00:15:48;101220.81;;;20.26;88.77
71976;BME280;68326;52.124;5.424;2023-06-26T00:18:14;101217.91;;;20.29;88.23
71976;BME280;68326;52.124;5.424;2023-06-26T00:20:41;101221.44;;;20.39;85.92
71976;BME280;68326;52.124;5.424;2023-06-26T00:23:07;101219.69;;;20.49;86.47
71976;BME280;68326;52.124;5.424;2023-06-26T00:25:34;101221.34;;;20.50;87.65
71976;BME280;68326;52.124;5.424;2023-06-26T00:28:00;101221.09;;;20.53;85.27
71976;BME280;68326;52.124;5.424;2023-06-26T00:30:27;101212.03;;;20.56;86.60
71976;BME280;68326;52.124;5.424;2023-06-26T00:32:54;101206.84;;;20.66;82.04
71976;BME280;68326;52.124;5.424;2023-06-26T00:35:20;101196.09;;;20.67;85.65
71976;BME280;68326;52.124;5.424;2023-06-26T00:37:47;101193.31;;;20.69;83.13
71976;BME280;68326;52.124;5.424;2023-06-26T00:40:13;101187.38;;;20.76;80.59
71976;BME280;68326;52.124;5.424;2023-06-26T00:42:40;101188.38;;;20.85;83.03
71976;BME280;68326;52.124;5.424;2023-06-26T00:45:06;101194.91;;;20.81;82.18
71976;BME280;68326;52.124;5.424;2023-06-26T00:47:33;101182.47;;;20.72;82.26
71976;BME280;68326;52.124;5.424;2023-06-26T00:50:00;101191.91;;;20.65;84.62
71976;BME280;68326;52.124;5.424;2023-06-26T00:52:27;101188.84;;;20.60;83.73
71976;BME280;68326;52.124;5.424;2023-06-26T00:54:53;101175.03;;;20.56;83.44
71976;BME280;68326;52.124;5.424;2023-06-26T00:57:20;101192.00;;;20.53;85.01
71976;BME280;68326;52.124;5.424;2023-06-26T00:59:47;101187.94;;;20.49;84.70
71976;BME280;68326;52.124;5.424;2023-06-26T01:02:14;101195.41;;;20.44;85.16
71976;BME280;68326;52.124;5.424;2023-06-26T01:04:44;101193.06;;;20.41;85.86
71976;BME280;68326;52.124;5.424;2023-06-26T01:07:14;101196.69;;;20.40;87.12
71976;BME280;68326;52.124;5.424;2023-06-26T01:09:41;101204.03;;;20.36;85.98
71976;BME280;68326;52.124;5.424;2023-06-26T01:12:08;101204.88;;;20.37;85.78
71976;BME280;68326;52.124;5.424;2023-06-26T01:14:35;101214.38;;;20.49;81.46
71976;BME280;68326;52.124;5.424;2023-06-26T01:17:02;101213.66;;;20.68;80.46
71976;BME280;68326;52.124;5.424;2023-06-26T01:19:31;101212.88;;;20.87;78.99
71976;BME280;68326;52.124;5.424;2023-06-26T01:25:15;101203.03;;;21.18;78.22
71976;BME280;68326;52.124;5.424;2023-06-26T01:27:50;101209.31;;;21.37;76.12
71976;BME280;68326;52.124;5.424;2023-06-26T01:30:17;101226.34;;;21.54;74.93
71976;BME280;68326;52.124;5.424;2023-06-26T01:32:44;101232.06;;;21.69;74.05
71976;BME280;68326;52.124;5.424;2023-06-26T01:35:12;101234.16;;;21.85;73.73
71976;BME280;68326;52.124;5.424;2023-06-26T01:37:38;101231.47;;;21.94;72.74
71976;BME280;68326;52.124;5.424;2023-06-26T01:40:05;101233.69;;;21.99;72.57
71976;BME280;68326;52.124;5.424;2023-06-26T01:42:33;101240.69;;;22.00;72.69
71976;BME280;68326;52.124;5.424;2023-06-26T01:45:24;101238.44;;;22.05;72.47
71976;BME280;68326;52.124;5.424;2023-06-26T01:47:56;101246.53;;;22.04;72.56
71976;BME280;68326;52.124;5.424;2023-06-26T01:50:26;101243.88;;;22.04;71.58
71976;BME280;68326;52.124;5.424;2023-06-26T01:53:02;101238.56;;;22.04;71.35
71976;BME280;68326;52.124;5.424;2023-06-26T01:55:47;101235.91;;;22.04;71.45
71976;BME280;68326;52.124;5.424;2023-06-26T01:58:14;101233.88;;;21.97;71.01
71976;BME280;68326;52.124;5.424;2023-06-26T02:00:43;101239.44;;;21.94;70.75
71976;BME280;68326;52.124;5.424;2023-06-26T02:03:10;101235.41;;;21.90;70.94
71976;BME280;68326;52.124;5.424;2023-06-26T02:05:36;101246.28;;;21.87;70.96
71976;BME280;68326;52.124;5.424;2023-06-26T02:08:03;101245.03;;;21.82;72.04
71976;BME280;68326;52.124;5.424;2023-06-26T02:10:29;101242.81;;;21.77;71.25
71976;BME280;68326;52.124;5.424;2023-06-26T02:12:56;101246.84;;;21.71;71.95
71976;BME280;68326;52.124;5.424;2023-06-26T02:15:23;101242.81;;;21.67;72.03
71976;BME280;68326;52.124;5.424;2023-06-26T02:17:49;101248.38;;;21.64;71.59
71976;BME280;68326;52.124;5.424;2023-06-26T02:20:16;101247.00;;;21.60;71.68
71976;BME280;68326;52.124;5.424;2023-06-26T02:22:43;101246.44;;;21.56;71.40
71976;BME280;68326;52.124;5.424;2023-06-26T02:25:10;101249.50;;;21.52;71.94
71976;BME280;68326;52.124;5.424;2023-06-26T02:27:36;101254.09;;;21.50;72.08
71976;BME280;68326;52.124;5.424;2023-06-26T02:30:04;101253.81;;;21.43;73.08
71976;BME280;68326;52.124;5.424;2023-06-26T02:32:30;101245.44;;;21.38;72.67
71976;BME280;68326;52.124;5.424;2023-06-26T02:34:57;101256.28;;;21.35;73.09
71976;BME280;68326;52.124;5.424;2023-06-26T02:37:23;101246.09;;;21.30;73.40
71976;BME280;68326;52.124;5.424;2023-06-26T02:39:50;101255.28;;;21.26;73.99
71976;BME280;68326;52.124;5.424;2023-06-26T02:42:16;101257.53;;;21.21;74.03
71976;BME280;68326;52.124;5.424;2023-06-26T02:44:43;101255.13;;;21.18;74.44
71976;BME280;68326;52.124;5.424;2023-06-26T02:47:09;101251.78;;;21.16;74.45
71976;BME280;68326;52.124;5.424;2023-06-26T02:49:36;101257.38;;;21.13;74.65
71976;BME280;68326;52.124;5.424;2023-06-26T02:52:03;101264.59;;;21.11;74.96
71976;BME280;68326;52.124;5.424;2023-06-26T02:54:29;101257.63;;;21.10;75.05
71976;BME280;68326;52.124;5.424;2023-06-26T02:56:56;101260.28;;;21.10;75.43
71976;BME280;68326;52.124;5.424;2023-06-26T02:59:22;101277.13;;;21.09;75.19
71976;BME280;68326;52.124;5.424;2023-06-26T03:01:49;101276.69;;;21.04;75.64
71976;BME280;68326;52.124;5.424;2023-06-26T03:04:15;101281.28;;;21.02;75.16
71976;BME280;68326;52.124;5.424;2023-06-26T03:06:44;101268.31;;;20.98;75.27
71976;BME280;68326;52.124;5.424;2023-06-26T03:09:10;101272.78;;;20.98;75.76
71976;BME280;68326;52.124;5.424;2023-06-26T03:11:37;101273.03;;;20.95;76.63
71976;BME280;68326;52.124;5.424;2023-06-26T03:14:03;101280.16;;;20.94;75.94
71976;BME280;68326;52.124;5.424;2023-06-26T03:16:30;101279.44;;;20.92;76.30
71976;BME280;68326;52.124;5.424;2023-06-26T03:18:56;101288.38;;;20.91;76.68
71976;BME280;68326;52.124;5.424;2023-06-26T03:21:23;101286.69;;;20.90;76.65
71976;BME280;68326;52.124;5.424;2023-06-26T03:23:49;101276.38;;;20.87;76.50
71976;BME280;68326;52.124;5.424;2023-06-26T03:26:16;101280.81;;;20.87;77.25
71976;BME280;68326;52.124;5.424;2023-06-26T03:28:42;101284.72;;;20.83;77.34
71976;BME280;68326;52.124;5.424;2023-06-26T03:31:09;101285.66;;;20.82;77.78
71976;BME280;68326;52.124;5.424;2023-06-26T03:33:37;101281.22;;;20.82;78.29
71976;BME280;68326;52.124;5.424;2023-06-26T03:36:04;101275.38;;;20.79;78.37
71976;BME280;68326;52.124;5.424;2023-06-26T03:38:32;101276.44;;;20.76;77.94
71976;BME280;68326;52.124;5.424;2023-06-26T03:40:58;101286.19;;;20.75;78.57
71976;BME280;68326;52.124;5.424;2023-06-26T03:43:25;101288.13;;;20.73;78.62
71976;BME280;68326;52.124;5.424;2023-06-26T03:45:52;101290.91;;;20.72;78.72
71976;BME280;68326;52.124;5.424;2023-06-26T03:48:18;101293.72;;;20.70;78.31
71976;BME280;68326;52.124;5.424;2023-06-26T03:50:45;101296.59;;;20.67;78.93
71976;BME280;68326;52.124;5.424;2023-06-26T03:53:12;101304.69;;;20.66;79.17
71976;BME280;68326;52.124;5.424;2023-06-26T03:55:38;101310.94;;;20.65;78.89
71976;BME280;68326;52.124;5.424;2023-06-26T03:58:05;101302.28;;;20.63;78.84
71976;BME280;68326;52.124;5.424;2023-06-26T04:00:32;101313.34;;;20.56;78.21
71976;BME280;68326;52.124;5.424;2023-06-26T04:02:58;101310.28;;;20.51;78.01
71976;BME280;68326;52.124;5.424;2023-06-26T04:05:25;101324.72;;;20.47;77.61
71976;BME280;68326;52.124;5.424;2023-06-26T04:07:52;101332.19;;;20.42;77.34
71976;BME280;68326;52.124;5.424;2023-06-26T04:10:19;101332.59;;;20.37;77.29
71976;BME280;68326;52.124;5.424;2023-06-26T04:12:47;101333.81;;;20.33;77.61
71976;BME280;68326;52.124;5.424;2023-06-26T04:15:15;101329.50;;;20.32;77.15
71976;BME280;68326;52.124;5.424;2023-06-26T04:17:42;101331.81;;;20.26;77.18
71976;BME280;68326;52.124;5.424;2023-06-26T04:20:08;101341.81;;;20.22;77.74
71976;BME280;68326;52.124;5.424;2023-06-26T04:22:35;101341.56;;;20.25;77.67
71976;BME280;68326;52.124;5.424;2023-06-26T04:25:02;101331.56;;;20.29;78.03
71976;BME280;68326;52.124;5.424;2023-06-26T04:27:29;101335.75;;;20.31;78.20
71976;BME280;68326;52.124;5.424;2023-06-26T04:29:56;101345.34;;;20.32;77.87
71976;BME280;68326;52.124;5.424;2023-06-26T04:32:23;101348.25;;;20.29;77.22
71976;BME280;68326;52.124;5.424;2023-06-26T04:34:50;101345.53;;;20.20;77.99
71976;BME280;68326;52.124;5.424;2023-06-26T04:37:16;101346.13;;;20.23;77.79
71976;BME280;68326;52.124;5.424;2023-06-26T04:39:43;101350.44;;;20.24;77.62
71976;BME280;68326;52.124;5.424;2023-06-26T04:42:10;101359.91;;;20.27;77.67
71976;BME280;68326;52.124;5.424;2023-06-26T04:44:38;101359.91;;;20.27;77.06
71976;BME280;68326;52.124;5.424;2023-06-26T04:47:07;101364.50;;;20.25;77.68
71976;BME280;68326;52.124;5.424;2023-06-26T04:49:34;101364.97;;;20.30;77.33
71976;BME280;68326;52.124;5.424;2023-06-26T04:52:04;101369.53;;;20.28;77.14
71976;BME280;68326;52.124;5.424;2023-06-26T04:54:31;101373.72;;;20.30;77.13
71976;BME280;68326;52.124;5.424;2023-06-26T04:56:57;101391.50;;;20.28;77.17
71976;BME280;68326;52.124;5.424;2023-06-26T04:59:24;101389.81;;;20.27;76.95
71976;BME280;68326;52.124;5.424;2023-06-26T05:01:50;101384.59;;;20.16;77.42
71976;BME280;68326;52.124;5.424;2023-06-26T05:04:17;101378.59;;;20.14;76.94
71976;BME280;68326;52.124;5.424;2023-06-26T05:06:44;101390.59;;;20.18;76.85
71976;BME280;68326;52.124;5.424;2023-06-26T05:09:10;101394.34;;;20.15;77.15
71976;BME280;68326;52.124;5.424;2023-06-26T05:11:37;101387.13;;;20.17;75.83
71976;BME280;68326;52.124;5.424;2023-06-26T05:14:04;101393.22;;;20.18;75.89
71976;BME280;68326;52.124;5.424;2023-06-26T05:16:33;101391.59;;;20.06;76.78
71976;BME280;68326;52.124;5.424;2023-06-26T05:19:00;101384.75;;;20.03;76.61
71976;BME280;68326;52.124;5.424;2023-06-26T05:21:28;101402.63;;;20.11;76.85
71976;BME280;68326;52.124;5.424;2023-06-26T05:23:56;101398.91;;;20.13;76.75
71976;BME280;68326;52.124;5.424;2023-06-26T05:26:25;101409.91;;;20.19;76.31
71976;BME280;68326;52.124;5.424;2023-06-26T05:28:52;101411.13;;;20.26;76.49
71976;BME280;68326;52.124;5.424;2023-06-26T05:31:19;101412.66;;;20.28;75.41
71976;BME280;68326;52.124;5.424;2023-06-26T05:33:46;101423.28;;;20.17;76.25
71976;BME280;68326;52.124;5.424;2023-06-26T05:36:13;101415.59;;;20.14;77.16
71976;BME280;68326;52.124;5.424;2023-06-26T05:38:42;101423.63;;;20.24;76.55
71976;BME280;68326;52.124;5.424;2023-06-26T05:41:09;101420.72;;;20.27;76.45
71976;BME280;68326;52.124;5.424;2023-06-26T05:43:35;101433.19;;;20.36;75.42
71976;BME280;68326;52.124;5.424;2023-06-26T05:46:02;101429.31;;;20.40;76.04
71976;BME280;68326;52.124;5.424;2023-06-26T05:48:28;101429.19;;;20.42;75.35
71976;BME280;68326;52.124;5.424;2023-06-26T05:50:55;101436.38;;;20.51;73.90
71976;BME280;68326;52.124;5.424;2023-06-26T05:53:22;101434.78;;;20.48;74.45
71976;BME280;68326;52.124;5.424;2023-06-26T05:55:49;101434.16;;;20.56;73.68
71976;BME280;68326;52.124;5.424;2023-06-26T05:58:16;101439.44;;;20.56;73.54
71976;BME280;68326;52.124;5.424;2023-06-26T06:00:44;101444.97;;;20.64;71.91
71976;BME280;68326;52.124;5.424;2023-06-26T06:03:10;101447.44;;;20.77;72.80
71976;BME280;68326;52.124;5.424;2023-06-26T06:05:37;101459.31;;;20.83;71.10
71976;BME280;68326;52.124;5.424;2023-06-26T06:08:04;101463.81;;;20.92;72.44
71976;BME280;68326;52.124;5.424;2023-06-26T06:10:31;101472.25;;;21.07;70.66
71976;BME280;68326;52.124;5.424;2023-06-26T06:12:57;101472.50;;;21.25;70.00
71976;BME280;68326;52.124;5.424;2023-06-26T06:15:24;101475.44;;;21.31;69.54
71976;BME280;68326;52.124;5.424;2023-06-26T06:17:50;101476.44;;;21.30;69.13
71976;BME280;68326;52.124;5.424;2023-06-26T06:20:17;101484.72;;;21.16;68.81
71976;BME280;68326;52.124;5.424;2023-06-26T06:22:46;101488.34;;;21.15;68.67
71976;BME280;68326;52.124;5.424;2023-06-26T06:25:12;101494.47;;;21.15;68.71
71976;BME280;68326;52.124;5.424;2023-06-26T06:27:39;101491.81;;;20.94;69.55
71976;BME280;68326;52.124;5.424;2023-06-26T06:30:06;101498.97;;;21.04;70.47
71976;BME280;68326;52.124;5.424;2023-06-26T06:32:34;101496.41;;;21.13;69.86
71976;BME280;68326;52.124;5.424;2023-06-26T06:35:01;101501.22;;;21.29;69.53
71976;BME280;68326;52.124;5.424;2023-06-26T06:37:38;101516.34;;;21.38;68.23
71976;BME280;68326;52.124;5.424;2023-06-26T06:40:06;101521.66;;;21.17;68.53
71976;BME280;68326;52.124;5.424;2023-06-26T06:42:32;101528.78;;;21.27;68.83
71976;BME280;68326;52.124;5.424;2023-06-26T06:45:02;101533.84;;;21.51;68.45
71976;BME280;68326;52.124;5.424;2023-06-26T06:47:29;101527.31;;;21.55;68.23
71976;BME280;68326;52.124;5.424;2023-06-26T06:49:55;101532.69;;;21.44;68.82
71976;BME280;68326;52.124;5.424;2023-06-26T06:52:22;101539.06;;;21.41;68.51
71976;BME280;68326;52.124;5.424;2023-06-26T06:54:56;101548.34;;;21.35;68.91
71976;BME280;68326;52.124;5.424;2023-06-26T06:57:25;101552.09;;;21.33;69.07
71976;BME280;68326;52.124;5.424;2023-06-26T06:59:51;101542.31;;;21.24;69.62
71976;BME280;68326;52.124;5.424;2023-06-26T07:02:18;101541.00;;;21.39;68.50
71976;BME280;68326;52.124;5.424;2023-06-26T07:04:44;101542.34;;;21.54;68.45
71976;BME280;68326;52.124;5.424;2023-06-26T07:07:12;101551.72;;;21.89;67.67
71976;BME280;68326;52.124;5.424;2023-06-26T07:09:40;101561.88;;;21.84;66.72
71976;BME280;68326;52.124;5.424;2023-06-26T07:12:07;101554.84;;;21.73;67.43
71976;BME280;68326;52.124;5.424;2023-06-26T07:14:33;101553.22;;;21.82;66.65
71976;BME280;68326;52.124;5.424;2023-06-26T07:17:00;101553.09;;;21.84;67.13
71976;BME280;68326;52.124;5.424;2023-06-26T07:19:26;101569.22;;;22.11;66.89
71976;BME280;68326;52.124;5.424;2023-06-26T07:21:53;101574.34;;;22.03;67.34
71976;BME280;68326;52.124;5.424;2023-06-26T07:24:20;101584.47;;;21.78;68.05
71976;BME280;68326;52.124;5.424;2023-06-26T07:26:46;101586.63;;;21.64;68.28
71976;BME280;68326;52.124;5.424;2023-06-26T07:29:16;101583.66;;;21.57;69.17
71976;BME280;68326;52.124;5.424;2023-06-26T07:31:42;101580.88;;;21.89;68.31
71976;BME280;68326;52.124;5.424;2023-06-26T07:34:10;101582.88;;;21.76;67.21
71976;BME280;68326;52.124;5.424;2023-06-26T07:36:37;101582.63;;;21.79;68.35
71976;BME280;68326;52.124;5.424;2023-06-26T07:39:03;101588.66;;;21.81;67.59
71976;BME280;68326;52.124;5.424;2023-06-26T07:41:30;101584.81;;;21.64;67.84
71976;BME280;68326;52.124;5.424;2023-06-26T07:43:58;101584.50;;;21.57;68.07
71976;BME280;68326;52.124;5.424;2023-06-26T07:46:25;101591.59;;;21.57;68.35
71976;BME280;68326;52.124;5.424;2023-06-26T07:48:51;101591.47;;;21.89;67.03
71976;BME280;68326;52.124;5.424;2023-06-26T07:51:18;101594.66;;;21.83;67.54
71976;BME280;68326;52.124;5.424;2023-06-26T07:53:44;101594.56;;;21.94;67.10
71976;BME280;68326;52.124;5.424;2023-06-26T07:56:11;101598.81;;;22.16;65.27
71976;BME280;68326;52.124;5.424;2023-06-26T07:58:37;101602.84;;;22.11;66.34
71976;BME280;68326;52.124;5.424;2023-06-26T08:01:05;101612.53;;;21.91;67.13
71976;BME280;68326;52.124;5.424;2023-06-26T08:03:31;101607.06;;;21.83;66.31
71976;BME280;68326;52.124;5.424;2023-06-26T08:06:01;101603.78;;;21.69;67.45
71976;BME280;68326;52.124;5.424;2023-06-26T08:08:27;101613.66;;;21.67;67.75
71976;BME280;68326;52.124;5.424;2023-06-26T08:10:54;101610.06;;;21.68;66.78
71976;BME280;68326;52.124;5.424;2023-06-26T08:13:20;101607.91;;;21.83;67.20
71976;BME280;68326;52.124;5.424;2023-06-26T08:15:47;101609.75;;;21.92;65.95
71976;BME280;68326;52.124;5.424;2023-06-26T08:18:13;101604.28;;;21.84;66.45
71976;BME280;68326;52.124;5.424;2023-06-26T08:20:40;101609.94;;;21.70;66.72
71976;BME280;68326;52.124;5.424;2023-06-26T08:23:06;101614.66;;;21.66;66.16
71976;BME280;68326;52.124;5.424;2023-06-26T08:25:33;101617.03;;;21.69;66.02
71976;BME280;68326;52.124;5.424;2023-06-26T08:27:59;101615.56;;;21.55;65.75
71976;BME280;68326;52.124;5.424;2023-06-26T08:30:26;101614.19;;;21.40;66.82
71976;BME280;68326;52.124;5.424;2023-06-26T08:32:57;101623.75;;;21.52;65.65
71976;BME280;68326;52.124;5.424;2023-06-26T08:35:24;101622.97;;;21.83;64.10
71976;BME280;68326;52.124;5.424;2023-06-26T08:37:50;101627.13;;;22.06;61.70
71976;BME280;68326;52.124;5.424;2023-06-26T08:40:17;101633.38;;;21.74;60.80
71976;BME280;68326;52.124;5.424;2023-06-26T08:42:47;101632.47;;;21.64;60.59
71976;BME280;68326;52.124;5.424;2023-06-26T08:45:13;101634.41;;;21.83;61.80
71976;BME280;68326;52.124;5.424;2023-06-26T08:47:41;101645.91;;;22.24;61.44
71976;BME280;68326;52.124;5.424;2023-06-26T08:50:10;101632.16;;;22.40;60.54
71976;BME280;68326;52.124;5.424;2023-06-26T08:55:31;101642.34;;;21.83;62.04
71976;BME280;68326;52.124;5.424;2023-06-26T08:57:59;101644.78;;;21.96;60.37
71976;BME280;68326;52.124;5.424;2023-06-26T09:00:26;101643.44;;;22.32;61.72
71976;BME280;68326;52.124;5.424;2023-06-26T09:02:53;101651.59;;;22.60;58.63
71976;BME280;68326;52.124;5.424;2023-06-26T09:05:19;101654.41;;;22.78;58.45
71976;BME280;68326;52.124;5.424;2023-06-26T09:07:46;101668.38;;;22.70;58.67
71976;BME280;68326;52.124;5.424;2023-06-26T09:10:13;101674.72;;;22.38;56.97
71976;BME280;68326;52.124;5.424;2023-06-26T09:12:39;101675.91;;;22.55;58.63
71976;BME280;68326;52.124;5.424;2023-06-26T09:15:06;101677.84;;;22.53;57.18
71976;BME280;68326;52.124;5.424;2023-06-26T09:17:38;101690.38;;;22.20;59.26
71976;BME280;68326;52.124;5.424;2023-06-26T09:20:06;101689.09;;;22.36;57.85
71976;BME280;68326;52.124;5.424;2023-06-26T09:22:38;101684.81;;;22.54;57.21
71976;BME280;68326;52.124;5.424;2023-06-26T09:25:05;101686.50;;;22.65;56.15
71976;BME280;68326;52.124;5.424;2023-06-26T09:27:33;101689.28;;;22.44;55.47
71976;BME280;68326;52.124;5.424;2023-06-26T09:30:01;101694.13;;;22.18;56.80
71976;BME280;68326;52.124;5.424;2023-06-26T09:32:28;101697.59;;;22.30;56.96
71976;BME280;68326;52.124;5.424;2023-06-26T09:34:55;101705.19;;;22.44;56.33
71976;BME280;68326;52.124;5.424;2023-06-26T09:37:22;101706.44;;;22.19;57.71
71976;BME280;68326;52.124;5.424;2023-06-26T09:39:51;101705.31;;;22.22;57.15
71976;BME280;68326;52.124;5.424;2023-06-26T09:42:19;101710.16;;;22.16;57.25
71976;BME280;68326;52.124;5.424;2023-06-26T09:44:47;101694.56;;;21.92;56.95
71976;BME280;68326;52.124;5.424;2023-06-26T09:47:18;101703.47;;;22.12;57.23
71976;BME280;68326;52.124;5.424;2023-06-26T09:49:46;101717.63;;;22.23;55.94
71976;BME280;68326;52.124;5.424;2023-06-26T09:52:16;101712.69;;;22.18;57.55
71976;BME280;68326;52.124;5.424;2023-06-26T09:54:43;101712.28;;;21.92;56.53
71976;BME280;68326;52.124;5.424;2023-06-26T09:57:13;101727.47;;;21.90;56.89
71976;BME280;68326;52.124;5.424;2023-06-26T09:59:40;101719.94;;;21.74;56.36
71976;BME280;68326;52.124;5.424;2023-06-26T10:02:07;101714.72;;;21.63;57.62
71976;BME280;68326;52.124;5.424;2023-06-26T10:04:35;101724.56;;;21.72;56.62
71976;BME280;68326;52.124;5.424;2023-06-26T10:07:05;101732.25;;;21.96;55.86
71976;BME280;68326;52.124;5.424;2023-06-26T10:09:32;101736.63;;;22.07;54.41
71976;BME280;68326;52.124;5.424;2023-06-26T10:12:21;101738.78;;;22.34;57.05
71976;BME280;68326;52.124;5.424;2023-06-26T10:14:51;101732.47;;;22.25;54.67
71976;BME280;68326;52.124;5.424;2023-06-26T10:17:19;101748.00;;;22.18;57.00
71976;BME280;68326;52.124;5.424;2023-06-26T10:19:49;101757.44;;;22.53;54.40
71976;BME280;68326;52.124;5.424;2023-06-26T10:22:20;101763.53;;;22.44;56.47
71976;BME280;68326;52.124;5.424;2023-06-26T10:24:47;101762.19;;;22.29;52.83
71976;BME280;68326;52.124;5.424;2023-06-26T10:27:18;101751.75;;;22.37;52.84
71976;BME280;68326;52.124;5.424;2023-06-26T10:29:51;101760.06;;;22.23;53.90
71976;BME280;68326;52.124;5.424;2023-06-26T10:32:20;101759.34;;;21.78;54.35
71976;BME280;68326;52.124;5.424;2023-06-26T10:34:47;101763.34;;;21.94;54.23
71976;BME280;68326;52.124;5.424;2023-06-26T10:37:14;101766.78;;;22.27;54.78
71976;BME280;68326;52.124;5.424;2023-06-26T10:39:48;101769.84;;;22.53;52.44
71976;BME280;68326;52.124;5.424;2023-06-26T10:42:17;101759.09;;;22.54;52.27
71976;BME280;68326;52.124;5.424;2023-06-26T10:44:48;101764.38;;;22.85;50.54
71976;BME280;68326;52.124;5.424;2023-06-26T10:47:33;101746.94;;;22.92;51.73
71976;BME280;68326;52.124;5.424;2023-06-26T10:50:27;101763.56;;;22.85;51.51
71976;BME280;68326;52.124;5.424;2023-06-26T10:55:56;101773.59;;;22.81;49.79
71976;BME280;68326;52.124;5.424;2023-06-26T11:01:19;101783.59;;;22.68;49.97
71976;BME280;68326;52.124;5.424;2023-06-26T11:04:04;101787.19;;;22.97;49.52
71976;BME280;68326;52.124;5.424;2023-06-26T11:06:32;101784.38;;;22.99;48.95
71976;BME280;68326;52.124;5.424;2023-06-26T11:09:06;101796.94;;;22.87;48.29
71976;BME280;68326;52.124;5.424;2023-06-26T11:14:26;101787.84;;;23.30;48.35
71976;BME280;68326;52.124;5.424;2023-06-26T11:16:55;101782.56;;;23.59;48.43
71976;BME280;68326;52.124;5.424;2023-06-26T11:19:26;101782.84;;;23.47;47.57
71976;BME280;68326;52.124;5.424;2023-06-26T11:21:58;101805.59;;;23.20;49.24
71976;BME280;68326;52.124;5.424;2023-06-26T11:24:26;101804.34;;;23.14;47.54
71976;BME280;68326;52.124;5.424;2023-06-26T11:26:52;101799.31;;;23.31;49.43
71976;BME280;68326;52.124;5.424;2023-06-26T11:29:19;101803.41;;;23.64;48.08
71976;BME280;68326;52.124;5.424;2023-06-26T11:31:45;101814.09;;;23.14;48.72
71976;BME280;68326;52.124;5.424;2023-06-26T11:34:13;101824.75;;;23.24;49.93
71976;BME280;68326;52.124;5.424;2023-06-26T11:36:41;101814.88;;;23.55;48.33
71976;BME280;68326;52.124;5.424;2023-06-26T11:39:09;101821.09;;;23.15;48.51
71976;BME280;68326;52.124;5.424;2023-06-26T11:41:37;101818.31;;;23.26;48.44
71976;BME280;68326;52.124;5.424;2023-06-26T11:44:05;101813.59;;;23.39;48.21
71976;BME280;68326;52.124;5.424;2023-06-26T11:46:34;101824.13;;;23.70;51.82
71976;BME280;68326;52.124;5.424;2023-06-26T11:49:08;101831.97;;;23.72;47.96
71976;BME280;68326;52.124;5.424;2023-06-26T11:51:35;101846.88;;;23.44;47.32
71976;BME280;68326;52.124;5.424;2023-06-26T11:54:04;101840.69;;;23.24;49.45
71976;BME280;68326;52.124;5.424;2023-06-26T11:56:31;101847.41;;;23.28;48.03
71976;BME280;68326;52.124;5.424;2023-06-26T11:59:00;101856.03;;;23.20;48.27
71976;BME280;68326;52.124;5.424;2023-06-26T12:01:38;101851.84;;;23.17;46.09
71976;BME280;68326;52.124;5.424;2023-06-26T12:04:07;101861.06;;;22.92;46.93
71976;BME280;68326;52.124;5.424;2023-06-26T12:06:35;101860.53;;;22.89;47.30
71976;BME280;68326;52.124;5.424;2023-06-26T12:09:05;101861.22;;;23.22;47.50
71976;BME280;68326;52.124;5.424;2023-06-26T12:11:33;101865.06;;;23.48;44.95
71976;BME280;68326;52.124;5.424;2023-06-26T12:14:01;101870.13;;;23.61;45.75
71976;BME280;68326;52.124;5.424;2023-06-26T12:16:29;101860.59;;;23.58;45.83
71976;BME280;68326;52.124;5.424;2023-06-26T12:19:00;101883.84;;;23.66;45.27
71976;BME280;68326;52.124;5.424;2023-06-26T12:24:00;101878.75;;;23.44;42.06
71976;BME280;68326;52.124;5.424;2023-06-26T12:26:30;101877.34;;;23.39;43.00
71976;BME280;68326;52.124;5.424;2023-06-26T12:29:08;101865.59;;;23.32;45.06
71976;BME280;68326;52.124;5.424;2023-06-26T12:31:35;101868.47;;;23.19;42.95
71976;BME280;68326;52.124;5.424;2023-06-26T12:34:09;101861.28;;;23.00;45.10
71976;BME280;68326;52.124;5.424;2023-06-26T12:36:43;101863.59;;;22.94;45.73
71976;BME280;68326;52.124;5.424;2023-06-26T12:39:11;101871.81;;;22.91;46.05
71976;BME280;68326;52.124;5.424;2023-06-26T12:42:04;101881.91;;;22.97;47.30
71976;BME280;68326;52.124;5.424;2023-06-26T12:44:32;101884.94;;;23.04;45.92
71976;BME280;68326;52.124;5.424;2023-06-26T12:47:00;101889.13;;;22.85;43.43
71976;BME280;68326;52.124;5.424;2023-06-26T12:49:33;101884.25;;;22.59;44.09
71976;BME280;68326;52.124;5.424;2023-06-26T12:52:06;101888.44;;;22.83;45.34
71976;BME280;68326;52.124;5.424;2023-06-26T12:54:37;101874.31;;;23.04;45.13
71976;BME280;68326;52.124;5.424;2023-06-26T12:57:05;101886.25;;;22.98;45.17
71976;BME280;68326;52.124;5.424;2023-06-26T12:59:33;101888.91;;;22.98;45.06
71976;BME280;68326;52.124;5.424;2023-06-26T13:02:00;101887.84;;;23.00;46.17
71976;BME280;68326;52.124;5.424;2023-06-26T13:04:27;101900.66;;;23.26;45.04
71976;BME280;68326;52.124;5.424;2023-06-26T13:06:53;101895.94;;;23.30;45.04
71976;BME280;68326;52.124;5.424;2023-06-26T13:09:24;101886.66;;;22.93;45.47
71976;BME280;68326;52.124;5.424;2023-06-26T13:11:52;101892.72;;;22.74;46.03